Time;durP1;ratioP1;P1;durP2;ratioP2;P2;SDS_P1;SDS_P2;PMS_P1;PMS_P2;Temp;Humidity;BMP_temperature;BMP_pressure;BME280_temperature;BME280_humidity;BME280_pressure;Samples;Min_cycle;Max_cycle;Signal;HPM_P1;HPM_P2
2024/01/06 00:02:08;;;;;;;;;;;;;;;15.98;48.56;100775.75;5077432;28;1135;-43
2024/01/06 00:04:34;;;;;;;;;;;;;;;15.41;48.63;100762.75;5077106;28;1050;-44
2024/01/06 00:06:59;;;;;;;;;;;;;;;17.04;47.61;100764.69;5077197;28;1905;-44
2024/01/06 00:09:25;;;;;;;;;;;;;;;16.20;48.51;100760.13;5077846;28;1127;-45
2024/01/06 00:11:51;;;;;;;;;;;;;;;15.66;48.40;100765.56;5065912;28;1143;-43
2024/01/06 00:14:16;;;;;;;;;;;;;;;15.40;47.98;100765.53;5077282;28;1118;-45
2024/01/06 00:16:42;;;;;;;;;;;;;;;15.18;47.60;100751.09;5077315;28;1222;-47
2024/01/06 00:19:07;;;;;;;;;;;;;;;15.09;47.01;100747.25;5077061;28;1067;-42
2024/01/06 00:21:33;;;;;;;;;;;;;;;16.82;48.03;100747.69;5076875;28;1012;-45
2024/01/06 00:23:58;;;;;;;;;;;;;;;15.81;49.21;100749.53;5071000;28;847;-45
2024/01/06 00:26:27;;;;;;;;;;;;;;;15.39;48.15;100761.19;5077128;28;1965;-41
2024/01/06 00:28:52;;;;;;;;;;;;;;;15.16;47.85;100760.94;5077359;28;1055;-45
2024/01/06 00:31:18;;;;;;;;;;;;;;;15.10;47.30;100754.22;5076812;28;1528;-44
2024/01/06 00:33:44;;;;;;;;;;;;;;;16.37;48.67;100762.41;5076820;28;1167;-47
2024/01/06 00:36:09;;;;;;;;;;;;;;;16.27;48.14;100741.00;5064281;28;1039;-46
2024/01/06 00:38:35;;;;;;;;;;;;;;;15.55;48.20;100739.75;5076880;28;1307;-41
2024/01/06 00:41:01;;;;;;;;;;;;;;;15.30;47.71;100738.78;5076550;28;1111;-44
2024/01/06 00:43:26;;;;;;;;;;;;;;;17.06;47.67;100748.63;5076670;28;1078;-47
2024/01/06 00:45:52;;;;;;;;;;;;;;;15.90;48.98;100741.78;5076937;28;1114;-42
2024/01/06 00:48:17;;;;;;;;;;;;;;;15.50;48.47;100737.44;5052023;28;1917;-46
2024/01/06 00:50:43;;;;;;;;;;;;;;;15.28;47.53;100730.13;5076761;28;1156;-48
2024/01/06 00:53:09;;;;;;;;;;;;;;;15.02;47.52;100722.97;5076574;28;1133;-46
2024/01/06 00:55:34;;;;;;;;;;;;;;;15.16;46.31;100721.19;5076686;28;1064;-44
2024/01/06 00:58:00;;;;;;;;;;;;;;;15.70;48.14;100721.94;5076674;28;1448;-43
2024/01/06 01:00:27;;;;;;;;;;;;;;;17.26;47.38;100715.25;5075446;28;870;-42
2024/01/06 01:02:52;;;;;;;;;;;;;;;15.99;48.51;100712.94;5076458;28;1068;-43
2024/01/06 01:05:18;;;;;;;;;;;;;;;15.51;48.38;100717.94;5076541;28;1028;-47
2024/01/06 01:07:44;;;;;;;;;;;;;;;15.29;47.63;100708.81;5076355;28;1982;-48
2024/01/06 01:10:09;;;;;;;;;;;;;;;15.13;47.37;100710.81;5076824;28;1210;-48
2024/01/06 01:12:35;;;;;;;;;;;;;;;15.00;47.17;100701.00;5069121;28;886;-48
2024/01/06 01:15:00;;;;;;;;;;;;;;;16.74;48.35;100712.88;5076110;28;1087;-46
2024/01/06 01:17:26;;;;;;;;;;;;;;;16.08;48.79;100712.25;5076577;28;1112;-48
2024/01/06 01:19:52;;;;;;;;;;;;;;;15.46;48.92;100711.25;5076118;28;1059;-44
2024/01/06 01:22:17;;;;;;;;;;;;;;;15.30;47.70;100694.59;5076186;28;1062;-46
2024/01/06 01:24:43;;;;;;;;;;;;;;;15.45;48.65;100696.31;5074862;28;933;-48
2024/01/06 01:27:09;;;;;;;;;;;;;;;16.80;47.79;100685.84;5076094;28;1910;-45
2024/01/06 01:29:34;;;;;;;;;;;;;;;15.65;48.95;100684.28;5076501;28;1040;-47
2024/01/06 01:32:00;;;;;;;;;;;;;;;15.29;48.26;100673.50;5076337;28;1091;-46
2024/01/06 01:34:25;;;;;;;;;;;;;;;15.15;47.28;100679.72;5076202;28;1167;-49
2024/01/06 01:36:51;;;;;;;;;;;;;;;14.96;47.24;100675.69;5067627;28;961;-47
2024/01/06 01:39:17;;;;;;;;;;;;;;;16.14;48.46;100661.41;5075847;28;1051;-42
2024/01/06 01:41:42;;;;;;;;;;;;;;;15.66;48.75;100665.63;5076422;28;1123;-45
2024/01/06 01:44:08;;;;;;;;;;;;;;;15.20;48.50;100653.75;5076019;28;1242;-46
2024/01/06 01:46:33;;;;;;;;;;;;;;;15.12;48.59;100661.41;5075875;28;1984;-45
2024/01/06 01:48:59;;;;;;;;;;;;;;;16.93;47.55;100661.88;5056120;28;977;-44
2024/01/06 01:51:32;;;;;;;;;;;;;;;16.46;48.23;100656.50;5076368;28;1134;-46
2024/01/06 01:53:58;;;;;;;;;;;;;;;15.62;48.60;100656.19;5057999;28;1016;-46
2024/01/06 01:56:24;;;;;;;;;;;;;;;15.28;48.23;100647.97;5076235;28;1015;-46
2024/01/06 01:58:49;;;;;;;;;;;;;;;15.73;49.60;100650.13;5042921;28;1138;-45
2024/01/06 02:01:15;;;;;;;;;;;;;;;17.42;46.90;100636.94;5068350;28;1269;-45
2024/01/06 02:03:41;;;;;;;;;;;;;;;15.94;48.60;100636.28;5075936;28;1055;-46
2024/01/06 02:06:06;;;;;;;;;;;;;;;15.51;48.75;100637.53;5076092;28;1068;-45
2024/01/06 02:08:32;;;;;;;;;;;;;;;15.21;48.07;100639.59;5075318;28;1893;-46
2024/01/06 02:10:57;;;;;;;;;;;;;;;15.16;47.36;100637.22;5055927;28;1142;-46
2024/01/06 02:13:23;;;;;;;;;;;;;;;16.18;48.61;100632.00;5058737;28;1091;-43
2024/01/06 02:15:49;;;;;;;;;;;;;;;16.19;48.68;100634.53;5079901;28;1170;-44
2024/01/06 02:18:15;;;;;;;;;;;;;;;15.52;49.00;100631.28;5079050;28;1180;-47
2024/01/06 02:20:42;;;;;;;;;;;;;;;15.27;47.83;100631.19;5079543;28;1170;-49
2024/01/06 02:23:08;;;;;;;;;;;;;;;15.09;47.68;100635.13;5059098;28;1076;-46
2024/01/06 02:25:35;;;;;;;;;;;;;;;15.00;46.73;100633.94;5070828;28;1067;-45
2024/01/06 02:28:00;;;;;;;;;;;;;;;15.81;48.68;100632.81;5074352;28;1906;-47
2024/01/06 02:30:26;;;;;;;;;;;;;;;16.50;48.00;100621.63;5070754;28;1127;-48
2024/01/06 02:32:51;;;;;;;;;;;;;;;15.47;48.83;100621.00;5078847;28;1155;-44
2024/01/06 02:35:17;;;;;;;;;;;;;;;15.24;48.23;100619.97;5076274;28;1141;-45
2024/01/06 02:37:44;;;;;;;;;;;;;;;15.02;47.69;100617.00;5077067;28;1135;-46
2024/01/06 02:40:10;;;;;;;;;;;;;;;15.53;48.74;100614.44;5078952;28;1062;-45
2024/01/06 02:42:36;;;;;;;;;;;;;;;17.18;47.42;100606.00;5079093;28;1111;-43
2024/01/06 02:45:02;;;;;;;;;;;;;;;15.90;48.63;100606.47;5078611;28;1103;-46
2024/01/06 02:47:27;;;;;;;;;;;;;;;15.47;48.22;100605.09;5074707;28;2000;-43
2024/01/06 02:49:53;;;;;;;;;;;;;;;15.11;47.69;100604.06;5070471;28;1128;-49
2024/01/06 02:52:18;;;;;;;;;;;;;;;16.70;48.03;100599.88;5078501;28;1182;-48
2024/01/06 02:54:44;;;;;;;;;;;;;;;15.59;48.72;100605.19;5078456;28;1063;-50
2024/01/06 02:57:09;;;;;;;;;;;;;;;15.15;48.58;100611.69;5078337;28;1082;-48
2024/01/06 02:59:35;;;;;;;;;;;;;;;15.01;47.92;100610.00;5073980;28;1067;-47
2024/01/06 03:02:01;;;;;;;;;;;;;;;16.58;48.36;100612.25;5075830;28;1119;-49
2024/01/06 03:04:27;;;;;;;;;;;;;;;15.74;48.93;100609.41;5067625;28;1055;-49
2024/01/06 03:06:53;;;;;;;;;;;;;;;15.36;48.20;100613.81;5075555;28;1984;-51
2024/01/06 03:09:19;;;;;;;;;;;;;;;15.09;47.65;100624.50;5077358;28;1112;-49
2024/01/06 03:11:45;;;;;;;;;;;;;;;15.89;48.95;100612.75;5077817;28;1107;-48
2024/01/06 03:14:10;;;;;;;;;;;;;;;16.60;47.47;100605.03;5078466;28;1023;-49
2024/01/06 03:16:36;;;;;;;;;;;;;;;15.55;48.59;100602.75;5077897;28;1163;-51
2024/01/06 03:19:01;;;;;;;;;;;;;;;15.32;48.18;100599.06;5077381;28;1035;-51
2024/01/06 03:21:27;;;;;;;;;;;;;;;16.20;48.79;100599.06;5078674;28;1392;-50
2024/01/06 03:23:55;;;;;;;;;;;;;;;16.50;47.89;100592.44;5077668;28;1242;-50
2024/01/06 03:26:20;;;;;;;;;;;;;;;15.65;48.62;100586.16;5078119;28;1905;-48
2024/01/06 03:28:46;;;;;;;;;;;;;;;15.25;48.09;100588.03;5078268;28;1384;-51
2024/01/06 03:31:11;;;;;;;;;;;;;;;17.12;47.45;100581.59;5078200;28;1156;-52
2024/01/06 03:33:37;;;;;;;;;;;;;;;15.87;48.43;100579.31;5077898;28;1091;-50
2024/01/06 03:36:06;;;;;;;;;;;;;;;15.45;48.44;100582.31;5071951;28;1337;-50
2024/01/06 03:38:32;;;;;;;;;;;;;;;15.65;49.42;100578.22;5071111;28;1301;-49
2024/01/06 03:40:57;;;;;;;;;;;;;;;17.38;46.75;100572.53;5077548;28;1222;-50
2024/01/06 03:43:23;;;;;;;;;;;;;;;15.83;48.96;100568.09;5077759;28;1400;-51
2024/01/06 03:45:48;;;;;;;;;;;;;;;15.44;48.71;100576.16;5077892;28;1107;-49
2024/01/06 03:48:14;;;;;;;;;;;;;;;15.27;47.85;100572.03;5077327;28;1905;-50
2024/01/06 03:50:39;;;;;;;;;;;;;;;15.13;46.79;100571.19;5077251;28;1225;-51
2024/01/06 03:53:05;;;;;;;;;;;;;;;15.00;46.85;100570.34;5077610;28;1110;-49
2024/01/06 03:55:31;;;;;;;;;;;;;;;16.73;48.03;100562.44;5077547;28;1067;-52
2024/01/06 03:57:56;;;;;;;;;;;;;;;15.68;48.79;100567.41;5077787;28;1134;-51
2024/01/06 04:00:22;;;;;;;;;;;;;;;15.25;48.24;100566.00;5074826;28;1130;-50
2024/01/06 04:02:47;;;;;;;;;;;;;;;15.18;47.27;100558.47;5077296;28;1135;-49
2024/01/06 04:05:13;;;;;;;;;;;;;;;15.01;46.71;100558.81;5077107;28;1043;-52
2024/01/06 04:07:38;;;;;;;;;;;;;;;14.99;46.16;100561.59;5077445;28;1906;-50
2024/01/06 04:10:05;;;;;;;;;;;;;;;16.06;48.28;100557.63;5076943;28;1047;-51
2024/01/06 04:12:30;;;;;;;;;;;;;;;16.22;48.27;100552.03;5070003;28;1039;-51
2024/01/06 04:14:56;;;;;;;;;;;;;;;15.45;48.47;100553.16;5074661;28;1199;-49
2024/01/06 04:17:22;;;;;;;;;;;;;;;15.69;49.79;100552.31;5077167;28;1170;-49
2024/01/06 04:19:47;;;;;;;;;;;;;;;16.40;48.11;100549.78;5076579;28;1071;-43
2024/01/06 04:22:13;;;;;;;;;;;;;;;15.51;48.81;100550.06;5066500;28;1099;-49
2024/01/06 04:24:40;;;;;;;;;;;;;;;15.28;48.26;100552.56;5073217;28;1162;-47
2024/01/06 04:27:05;;;;;;;;;;;;;;;15.08;47.55;100548.66;5077150;28;1890;-46
2024/01/06 04:29:31;;;;;;;;;;;;;;;16.21;48.66;100545.03;5076678;28;1217;-47
2024/01/06 04:31:56;;;;;;;;;;;;;;;15.85;48.52;100539.63;5076508;28;1381;-46
2024/01/06 04:34:22;;;;;;;;;;;;;;;15.37;48.24;100549.25;5076497;28;1175;-44
2024/01/06 04:36:49;;;;;;;;;;;;;;;15.17;47.64;100542.69;5070549;28;1079;-48
2024/01/06 04:39:15;;;;;;;;;;;;;;;15.15;47.83;100550.75;5076613;28;1079;-46
2024/01/06 04:41:40;;;;;;;;;;;;;;;16.91;47.43;100554.84;5077106;28;1139;-45
2024/01/06 04:44:06;;;;;;;;;;;;;;;15.83;48.97;100546.84;5067073;28;1122;-47
2024/01/06 04:46:31;;;;;;;;;;;;;;;15.37;48.59;100559.84;5056779;28;1977;-40
2024/01/06 04:48:57;;;;;;;;;;;;;;;16.25;49.27;100562.41;5063390;28;1215;-46
2024/01/06 04:51:23;;;;;;;;;;;;;;;16.28;48.54;100551.56;5073127;28;1412;-50
2024/01/06 04:53:48;;;;;;;;;;;;;;;15.55;48.61;100551.53;5075571;28;1043;-49
2024/01/06 04:56:14;;;;;;;;;;;;;;;15.38;47.63;100566.81;5066014;28;1400;-52
2024/01/06 04:58:39;;;;;;;;;;;;;;;15.24;47.03;100562.50;5075963;28;1052;-47
2024/01/06 05:01:05;;;;;;;;;;;;;;;15.04;46.94;100562.13;5061119;28;979;-47
2024/01/06 05:03:30;;;;;;;;;;;;;;;15.44;48.20;100568.22;5076143;28;1078;-48
2024/01/06 05:05:56;;;;;;;;;;;;;;;17.07;47.69;100572.25;5074700;28;1074;-50
2024/01/06 05:08:22;;;;;;;;;;;;;;;15.87;48.97;100580.19;5067386;28;1909;-51
2024/01/06 05:10:51;;;;;;;;;;;;;;;15.34;48.72;100578.63;5064734;28;2405;-50
2024/01/06 05:13:17;;;;;;;;;;;;;;;15.15;47.94;100577.25;5056204;28;1127;-52
2024/01/06 05:15:43;;;;;;;;;;;;;;;15.03;47.44;100581.59;5063978;28;1175;-49
2024/01/06 05:18:09;;;;;;;;;;;;;;;14.91;46.59;100580.63;5064356;28;1011;-50
2024/01/06 05:20:34;;;;;;;;;;;;;;;16.05;48.80;100577.16;5075659;28;909;-49
2024/01/06 05:23:00;;;;;;;;;;;;;;;17.38;46.76;100588.50;5072066;28;1036;-48
2024/01/06 05:25:26;;;;;;;;;;;;;;;16.81;47.30;100583.09;5065518;28;1135;-46
2024/01/06 05:27:51;;;;;;;;;;;;;;;16.36;48.33;100584.66;5072152;28;1975;-47
2024/01/06 05:30:18;;;;;;;;;;;;;;;16.19;48.50;100591.22;5055488;28;1035;-48
2024/01/06 05:32:43;;;;;;;;;;;;;;;15.94;49.24;100585.88;5068977;28;1075;-50
2024/01/06 05:35:09;;;;;;;;;;;;;;;15.76;49.17;100585.41;5055352;28;1044;-50
2024/01/06 05:37:34;;;;;;;;;;;;;;;16.59;47.73;100601.53;5061740;28;1016;-48
2024/01/06 05:40:03;;;;;;;;;;;;;;;17.52;44.99;100597.19;5062211;28;2250;-49
2024/01/06 05:42:28;;;;;;;;;;;;;;;16.57;47.01;100600.78;5059350;28;1119;-47
2024/01/06 05:44:54;;;;;;;;;;;;;;;16.13;48.07;100593.34;5064882;28;1031;-49
2024/01/06 05:47:20;;;;;;;;;;;;;;;15.91;48.72;100602.03;5070851;28;2039;-49
2024/01/06 05:49:46;;;;;;;;;;;;;;;16.25;48.35;100588.09;5070475;28;833;-49
2024/01/06 05:52:11;;;;;;;;;;;;;;;17.63;44.82;100592.69;5078984;28;1035;-47
2024/01/06 05:54:40;;;;;;;;;;;;;;;16.91;46.28;100586.75;5069138;28;1103;-46
2024/01/06 05:57:05;;;;;;;;;;;;;;;16.28;47.74;100588.72;5072822;28;1095;-50
2024/01/06 05:59:32;;;;;;;;;;;;;;;16.01;48.16;100573.91;5070252;28;1241;-48
2024/01/06 06:01:58;;;;;;;;;;;;;;;16.71;46.88;100591.78;5069587;28;1138;-50
2024/01/06 06:04:23;;;;;;;;;;;;;;;17.66;44.44;100596.94;5070554;28;1154;-49
2024/01/06 06:06:49;;;;;;;;;;;;;;;16.59;46.86;100598.00;5078524;28;1906;-49
2024/01/06 06:09:15;;;;;;;;;;;;;;;16.21;48.07;100591.97;5067996;28;1159;-49
2024/01/06 06:11:41;;;;;;;;;;;;;;;15.33;48.14;100478.00;5059416;28;2375;-47
2024/01/06 06:14:06;;;;;;;;;;;;;;;16.59;47.11;100585.59;5069831;28;913;-50
2024/01/06 06:16:32;;;;;;;;;;;;;;;17.62;44.49;100598.97;5061553;28;1083;-50
2024/01/06 06:18:58;;;;;;;;;;;;;;;16.67;46.50;100586.78;5041612;28;1083;-48
2024/01/06 06:21:23;;;;;;;;;;;;;;;16.20;48.01;100575.19;5059017;28;1044;-49
2024/01/06 06:23:49;;;;;;;;;;;;;;;16.02;48.22;100588.84;5069205;28;1004;-46
2024/01/06 06:26:15;;;;;;;;;;;;;;;17.51;44.93;100591.03;5074310;28;1082;-46
2024/01/06 06:28:41;;;;;;;;;;;;;;;17.01;45.93;100585.06;5079251;28;1981;-47
2024/01/06 06:31:06;;;;;;;;;;;;;;;16.46;47.12;100592.78;5065912;28;1082;-47
2024/01/06 06:33:33;;;;;;;;;;;;;;;16.08;47.97;100582.22;5078059;28;1060;-49
2024/01/06 06:35:58;;;;;;;;;;;;;;;15.93;48.62;100575.38;5078344;28;1115;-49
2024/01/06 06:38:27;;;;;;;;;;;;;;;17.37;45.29;100587.63;5078217;28;864;-49
2024/01/06 06:40:52;;;;;;;;;;;;;;;17.06;45.71;100586.50;5061104;28;2357;-48
2024/01/06 06:43:18;;;;;;;;;;;;;;;16.36;47.44;100582.88;5068656;28;1004;-48
2024/01/06 06:45:43;;;;;;;;;;;;;;;16.14;47.74;100573.84;5074455;28;1086;-47
2024/01/06 06:48:10;;;;;;;;;;;;;;;15.95;48.25;100578.78;5058673;28;1975;-48
2024/01/06 06:50:35;;;;;;;;;;;;;;;16.57;47.47;100586.66;5072500;28;1063;-46
2024/01/06 06:53:01;;;;;;;;;;;;;;;17.67;44.47;100589.78;5078456;28;1162;-50
2024/01/06 06:55:27;;;;;;;;;;;;;;;16.65;46.91;100584.25;5077775;28;1584;-48
2024/01/06 06:57:52;;;;;;;;;;;;;;;16.24;47.71;100587.28;5077728;28;1086;-46
2024/01/06 07:00:18;;;;;;;;;;;;;;;15.94;48.34;100592.97;5064835;28;1027;-46
2024/01/06 07:02:44;;;;;;;;;;;;;;;16.93;46.32;100592.78;5073738;28;841;-46
2024/01/06 07:05:09;;;;;;;;;;;;;;;17.32;45.18;100575.66;5078329;28;1003;-49
2024/01/06 07:07:35;;;;;;;;;;;;;;;16.51;46.96;100580.88;5077971;28;1980;-49
2024/01/06 07:10:01;;;;;;;;;;;;;;;16.09;47.89;100583.09;5060858;28;1856;-50
2024/01/06 07:12:27;;;;;;;;;;;;;;;16.83;46.70;100573.19;5057912;28;1003;-48
2024/01/06 07:14:53;;;;;;;;;;;;;;;17.30;45.35;100575.78;5071330;28;1095;-51
2024/01/06 07:17:18;;;;;;;;;;;;;;;16.45;47.38;100575.16;5068226;28;1166;-49
2024/01/06 07:19:44;;;;;;;;;;;;;;;16.18;47.85;100565.66;5076960;28;1090;-48
2024/01/06 07:22:10;;;;;;;;;;;;;;;16.03;48.47;100563.19;5077857;28;1054;-45
2024/01/06 07:24:36;;;;;;;;;;;;;;;17.52;44.63;100565.28;5074472;28;1078;-48
2024/01/06 07:27:03;;;;;;;;;;;;;;;16.98;45.87;100563.19;5073103;28;1902;-47
2024/01/06 07:29:28;;;;;;;;;;;;;;;16.39;47.48;100560.53;5073254;28;1058;-46
2024/01/06 07:31:54;;;;;;;;;;;;;;;16.03;48.38;100563.19;5067720;28;1023;-45
2024/01/06 07:34:19;;;;;;;;;;;;;;;16.45;47.51;100557.41;5076651;28;992;-48
2024/01/06 07:36:45;;;;;;;;;;;;;;;17.66;44.66;100566.81;5076455;28;1251;-47
2024/01/06 07:39:11;;;;;;;;;;;;;;;16.74;46.72;100566.78;5076114;28;972;-50
2024/01/06 07:41:36;;;;;;;;;;;;;;;16.28;48.00;100558.69;5074396;28;2469;-48
2024/01/06 07:44:04;;;;;;;;;;;;;;;16.06;48.51;100562.94;5065501;28;1008;-48
2024/01/06 07:46:31;;;;;;;;;;;;;;;15.87;49.02;100552.78;5057203;28;1907;-49
2024/01/06 07:48:57;;;;;;;;;;;;;;;17.37;45.56;100566.38;5069482;28;1163;-48
2024/01/06 07:51:23;;;;;;;;;;;;;;;17.00;46.11;100559.44;5074220;28;1222;-47
2024/01/06 07:53:48;;;;;;;;;;;;;;;16.39;47.39;100553.44;5064499;28;1114;-47
2024/01/06 07:56:14;;;;;;;;;;;;;;;16.06;48.26;100557.63;5070534;28;1219;-51
2024/01/06 07:58:39;;;;;;;;;;;;;;;15.91;48.59;100547.16;5057151;28;1031;-46
2024/01/06 08:01:05;;;;;;;;;;;;;;;16.74;47.20;100551.69;5076212;28;1215;-46
2024/01/06 08:03:30;;;;;;;;;;;;;;;17.44;44.93;100545.44;5071018;28;916;-49
2024/01/06 08:05:56;;;;;;;;;;;;;;;16.51;47.17;100554.31;5076562;28;1027;-47
2024/01/06 08:08:22;;;;;;;;;;;;;;;16.14;48.31;100551.75;5077177;28;1985;-48
2024/01/06 08:10:48;;;;;;;;;;;;;;;15.90;49.08;100549.91;5063007;28;2343;-46
2024/01/06 08:13:14;;;;;;;;;;;;;;;17.27;45.87;100545.97;5076655;28;1039;-49
2024/01/06 08:15:40;;;;;;;;;;;;;;;16.95;46.25;100550.16;5075580;28;1158;-49
2024/01/06 08:18:05;;;;;;;;;;;;;;;16.30;47.69;100554.09;5076368;28;1332;-47
2024/01/06 08:20:31;;;;;;;;;;;;;;;16.01;48.66;100538.56;5074476;28;1522;-45
2024/01/06 08:22:57;;;;;;;;;;;;;;;16.62;47.61;100545.50;5068990;28;1969;-49
2024/01/06 08:25:22;;;;;;;;;;;;;;;17.69;44.66;100543.47;5068433;28;1036;-49
2024/01/06 08:27:48;;;;;;;;;;;;;;;16.70;46.76;100542.25;5071355;28;1954;-47
2024/01/06 08:30:13;;;;;;;;;;;;;;;16.25;47.97;100546.47;5068125;28;1111;-49
2024/01/06 08:32:39;;;;;;;;;;;;;;;16.05;48.54;100541.84;5062969;28;1031;-50
2024/01/06 08:35:05;;;;;;;;;;;;;;;16.46;47.99;100535.22;5066461;28;1180;-50
2024/01/06 08:37:30;;;;;;;;;;;;;;;17.71;44.78;100533.56;5072167;28;1040;-49
2024/01/06 08:39:56;;;;;;;;;;;;;;;16.73;46.97;100528.72;5057806;28;2317;-47
2024/01/06 08:42:23;;;;;;;;;;;;;;;16.28;48.16;100521.53;5071262;28;1024;-53
2024/01/06 08:44:48;;;;;;;;;;;;;;;16.01;48.57;100512.03;5076123;28;1098;-52
2024/01/06 08:47:14;;;;;;;;;;;;;;;16.27;48.35;100519.81;5074958;28;1969;-52
2024/01/06 08:49:40;;;;;;;;;;;;;;;17.58;45.18;100512.41;5070832;28;1004;-49
2024/01/06 08:52:05;;;;;;;;;;;;;;;16.67;46.99;100520.38;5057123;28;846;-51
2024/01/06 08:54:31;;;;;;;;;;;;;;;16.22;47.96;100511.34;5063177;28;1136;-47
2024/01/06 08:56:57;;;;;;;;;;;;;;;15.97;48.68;100502.56;5076174;28;1028;-49
2024/01/06 08:59:22;;;;;;;;;;;;;;;15.98;49.02;100501.63;5076006;28;1087;-46
2024/01/06 09:01:48;;;;;;;;;;;;;;;17.50;45.46;100498.88;5070214;28;1219;-49
2024/01/06 09:04:14;;;;;;;;;;;;;;;16.97;46.35;100487.94;5076102;28;1414;-52
2024/01/06 09:06:41;;;;;;;;;;;;;;;16.38;47.82;100487.16;5075692;28;1926;-51
2024/01/06 09:09:08;;;;;;;;;;;;;;;16.06;48.73;100486.00;5060710;28;1032;-51
2024/01/06 09:11:33;;;;;;;;;;;;;;;15.93;48.95;100478.09;5069307;28;2271;-50
2024/01/06 09:13:59;;;;;;;;;;;;;;;16.71;47.50;100482.88;5067908;28;1217;-50
2024/01/06 09:16:24;;;;;;;;;;;;;;;17.66;45.02;100476.38;5062500;28;1039;-48
2024/01/06 09:18:50;;;;;;;;;;;;;;;16.68;47.28;100464.53;5075748;28;1005;-51
2024/01/06 09:21:17;;;;;;;;;;;;;;;16.26;48.30;100470.38;5068195;28;1274;-51
2024/01/06 09:23:43;;;;;;;;;;;;;;;16.02;48.72;100469.47;5068172;28;1097;-50
2024/01/06 09:26:08;;;;;;;;;;;;;;;16.08;49.00;100460.16;5070560;28;1103;-49
2024/01/06 09:28:34;;;;;;;;;;;;;;;17.52;45.55;100453.59;5045698;28;1906;-50
2024/01/06 09:30:59;;;;;;;;;;;;;;;16.86;46.76;100445.44;5055613;28;1103;-50
2024/01/06 09:33:25;;;;;;;;;;;;;;;16.32;48.00;100447.81;5067449;28;1202;-51
2024/01/06 09:35:51;;;;;;;;;;;;;;;16.09;48.88;100439.78;5074403;28;1186;-51
2024/01/06 09:38:17;;;;;;;;;;;;;;;16.45;48.21;100443.25;5070762;28;1147;-49
2024/01/06 09:40:44;;;;;;;;;;;;;;;17.59;45.33;100441.44;5066019;28;1817;-53
2024/01/06 09:43:10;;;;;;;;;;;;;;;16.65;47.30;100436.38;5056065;28;1211;-46
2024/01/06 09:45:35;;;;;;;;;;;;;;;16.25;48.23;100426.19;5074911;28;1027;-47
2024/01/06 09:48:03;;;;;;;;;;;;;;;16.06;49.03;100419.66;5075222;28;1954;-51
2024/01/06 09:50:29;;;;;;;;;;;;;;;15.89;49.29;100410.28;5055381;28;1087;-53
2024/01/06 09:53:03;;;;;;;;;;;;;;;16.93;46.99;100412.09;5050664;28;1231;-48
2024/01/06 09:55:29;;;;;;;;;;;;;;;17.29;45.85;100411.94;5041365;28;1077;-46
2024/01/06 09:57:55;;;;;;;;;;;;;;;16.49;47.81;100412.00;5062539;28;992;-52
2024/01/06 10:00:20;;;;;;;;;;;;;;;16.14;48.58;100400.50;5074745;28;1170;-52
2024/01/06 10:02:50;;;;;;;;;;;;;;;15.93;48.98;100398.50;5041587;28;1176;-49
2024/01/06 10:05:16;;;;;;;;;;;;;;;16.11;49.35;100400.72;5073494;28;992;-50
2024/01/06 10:07:45;;;;;;;;;;;;;;;17.54;45.65;100393.97;5067723;28;1909;-51
2024/01/06 10:10:11;;;;;;;;;;;;;;;16.87;47.03;100391.31;5068578;28;2388;-49
2024/01/06 10:12:40;;;;;;;;;;;;;;;16.28;48.21;100394.94;5067195;28;1079;-51
2024/01/06 10:15:06;;;;;;;;;;;;;;;16.05;49.27;100393.25;5073862;28;1123;-46
2024/01/06 10:17:32;;;;;;;;;;;;;;;15.87;49.45;100383.88;5057405;28;1090;-47
2024/01/06 10:19:58;;;;;;;;;;;;;;;16.88;47.63;100385.88;5074654;28;1232;-49
2024/01/06 10:22:23;;;;;;;;;;;;;;;17.43;45.83;100368.28;5074008;28;1231;-51
2024/01/06 10:24:49;;;;;;;;;;;;;;;16.59;47.57;100365.16;5066117;28;1097;-47
2024/01/06 10:27:15;;;;;;;;;;;;;;;16.23;48.83;100370.56;5043220;28;1913;-52
2024/01/06 10:29:40;;;;;;;;;;;;;;;15.93;49.42;100361.34;5049783;28;1415;-50
2024/01/06 10:32:06;;;;;;;;;;;;;;;16.19;49.31;100358.53;5074429;28;1143;-49
2024/01/06 10:34:32;;;;;;;;;;;;;;;17.58;45.98;100359.97;5076510;28;970;-49
2024/01/06 10:36:57;;;;;;;;;;;;;;;16.76;47.31;100350.53;5078512;28;1246;-48
2024/01/06 10:39:23;;;;;;;;;;;;;;;16.23;48.71;100345.88;5072293;28;1044;-52
2024/01/06 10:41:49;;;;;;;;;;;;;;;15.98;49.16;100340.63;5076763;28;1773;-49
2024/01/06 10:44:15;;;;;;;;;;;;;;;15.77;49.67;100335.13;5065736;28;1159;-51
2024/01/06 10:46:40;;;;;;;;;;;;;;;17.18;46.85;100334.88;5064888;28;1913;-50
2024/01/06 10:49:10;;;;;;;;;;;;;;;17.41;45.90;100340.09;5078790;28;1103;-50
2024/01/06 10:51:39;;;;;;;;;;;;;;;16.54;48.06;100332.81;5064982;28;927;-54
2024/01/06 10:54:05;;;;;;;;;;;;;;;16.17;49.12;100333.91;5064847;28;1199;-51
2024/01/06 10:56:31;;;;;;;;;;;;;;;15.94;49.55;100338.31;5064776;28;1598;-51
2024/01/06 10:58:56;;;;;;;;;;;;;;;15.96;49.87;100325.78;5060765;28;1155;-52
2024/01/06 11:01:24;;;;;;;;;;;;;;;17.42;46.20;100323.16;5071199;28;1023;-47
2024/01/06 11:03:50;;;;;;;;;;;;;;;16.99;46.74;100331.91;5064255;28;1164;-49
2024/01/06 11:06:17;;;;;;;;;;;;;;;16.36;48.61;100322.69;5070489;28;1070;-47
2024/01/06 11:08:55;;;;;;;;;;;;;;;16.11;48.92;100324.63;5072923;28;1976;-49
2024/01/06 11:11:20;;;;;;;;;;;;;;;15.86;49.76;100321.19;5063448;28;2477;-46
2024/01/06 11:13:47;;;;;;;;;;;;;;;16.69;47.87;100314.81;5073754;28;1099;-48
2024/01/06 11:16:31;;;;;;;;;;;;;;;17.56;45.64;100314.91;5068449;28;844;-51
2024/01/06 11:18:57;;;;;;;;;;;;;;;16.58;48.01;100312.19;5066146;28;1099;-46
2024/01/06 11:21:25;;;;;;;;;;;;;;;16.22;48.84;100307.00;5061127;28;1123;-47
2024/01/06 11:24:09;;;;;;;;;;;;;;;15.99;49.31;100304.34;5066760;28;1062;-52
2024/01/06 11:26:38;;;;;;;;;;;;;;;15.77;49.77;100298.88;5077396;28;1127;-50
2024/01/06 11:29:03;;;;;;;;;;;;;;;17.07;47.28;100304.69;5056072;28;857;-49
2024/01/06 11:31:31;;;;;;;;;;;;;;;17.25;46.35;100299.69;5064611;28;1044;-48
2024/01/06 11:33:57;;;;;;;;;;;;;;;16.48;48.27;100296.97;5046108;28;1128;-49
2024/01/06 11:36:23;;;;;;;;;;;;;;;16.13;48.91;100296.16;5052414;28;1365;-50
2024/01/06 11:38:50;;;;;;;;;;;;;;;15.91;49.52;100292.47;5070583;28;1269;-49
2024/01/06 11:41:51;;;;;;;;;;;;;;;15.74;49.91;100291.16;5068517;28;2327;-48
2024/01/06 11:44:22;;;;;;;;;;;;;;;17.02;47.39;100294.44;5035534;28;1396;-45
2024/01/06 11:46:51;;;;;;;;;;;;;;;17.35;46.27;100293.63;5059419;28;1979;-49
2024/01/06 11:49:17;;;;;;;;;;;;;;;16.55;48.09;100291.19;5076354;28;1371;-49
2024/01/06 11:51:42;;;;;;;;;;;;;;;16.15;49.11;100290.72;5054527;28;1332;-49
2024/01/06 11:54:09;;;;;;;;;;;;;;;15.90;49.67;100285.50;5077096;28;1209;-50
2024/01/06 11:56:34;;;;;;;;;;;;;;;16.55;48.68;100284.03;5059281;28;1427;-51
2024/01/06 11:59:00;;;;;;;;;;;;;;;17.70;45.64;100276.47;5077101;28;1362;-50
2024/01/06 12:01:26;;;;;;;;;;;;;;;16.74;47.69;100280.75;5067718;28;1402;-48
2024/01/06 12:03:54;;;;;;;;;;;;;;;16.33;48.98;100271.66;5076832;28;1240;-50
2024/01/06 12:06:21;;;;;;;;;;;;;;;16.07;49.50;100266.59;5057049;28;1229;-47
2024/01/06 12:08:47;;;;;;;;;;;;;;;15.89;49.86;100267.91;5076744;28;1973;-48
2024/01/06 12:11:12;;;;;;;;;;;;;;;16.88;47.89;100273.47;5063874;28;2236;-50
2024/01/06 12:13:38;;;;;;;;;;;;;;;17.38;46.20;100274.75;5073799;28;1374;-51
2024/01/06 12:16:04;;;;;;;;;;;;;;;16.58;47.95;100277.66;5065542;28;1134;-52
2024/01/06 12:18:29;;;;;;;;;;;;;;;16.21;49.15;100273.47;5054075;28;1384;-48
2024/01/06 12:20:55;;;;;;;;;;;;;;;16.02;49.55;100275.78;5076883;28;1304;-50
2024/01/06 12:23:27;;;;;;;;;;;;;;;17.40;46.50;100266.63;5046253;28;1027;-51
2024/01/06 12:25:53;;;;;;;;;;;;;;;16.86;47.58;100265.63;5063851;28;1266;-45
2024/01/06 12:28:19;;;;;;;;;;;;;;;16.40;48.63;100255.13;5068900;28;1972;-49
2024/01/06 12:30:44;;;;;;;;;;;;;;;16.06;49.68;100256.94;5063581;28;1226;-52
2024/01/06 12:33:10;;;;;;;;;;;;;;;15.87;49.90;100250.41;5062521;28;1193;-48
2024/01/06 12:35:36;;;;;;;;;;;;;;;16.28;49.24;100254.28;5076215;28;1054;-47
2024/01/06 12:38:05;;;;;;;;;;;;;;;17.60;46.10;100263.09;5075746;28;1094;-49
2024/01/06 12:40:31;;;;;;;;;;;;;;;16.84;47.73;100254.28;5051051;28;2346;-48
2024/01/06 12:42:56;;;;;;;;;;;;;;;16.36;48.90;100247.53;5069667;28;1004;-45